Accueil
METAR-TAF:

METAR-TAF

Aéroports :

Aéroport d'Iqaluit

Iqaluit, Nunavut, Canada

latitude: 63-45N, longitude: 068-33W, altitude: 34 m

Observation

Le bulletin a été fait il y a 1 heure et 14 minutes, à 04:00 UTC
Vent 4 kt de nord, variant entre nord/nord-ouest et nord-est
Température -29°C
Humidité 68%
Pression 1019 hPa
Visibilité: 24.1 km
Ciel clair

METAR: CYFB 160400Z 35004KT 340V050 15SM SKC M29/M33 A3010 RMK SLP201

Heure: 00:14 (05:14 UTC)

Prévision

Le bulletin a été fait il y a 5 heures et 36 minutes, à 23:38 UTC
Prévision valable du 16 à 00 UTC au 16 à 24 UTC
Vent 7 kt de nord/nord-ouest
Visibilité: 10 km
Quelques nuages à une hauteur de 3000 ft

TAF: CYFB 152338Z 1600/1624 33007KT P6SM FEW030 RMK NXT FCST BY 160600Z

Observations et prévisions météorologiques de plus de 4000 aéroports (messages METAR et TAF).

Les stations disponibles sont représentées par des disques jaunes et rouges sur la carte.

Passer la souris dessus pour voir le nom de la station.

Cliquer dessus pour voir les observations et prévisions météorologiques.

Pour changer de carte: cliquez sur les boutons verts avec une croix noire pour zoomer, sur le bouton vert avec un tiret pour effectuer un zoom arrière, ou sur les flèches vertes pour les cartes adjacentes.


METAR-TAF: